Time;durP1;ratioP1;P1;durP2;ratioP2;P2;SDS_P1;SDS_P2;PMS_P1;PMS_P2;Temp;Humidity;BMP_temperature;BMP_pressure;BME280_temperature;BME280_humidity;BME280_pressure;Samples;Min_cycle;Max_cycle;Signal;HPM_P1;HPM_P2
2022/08/16 00:02:01;;;;;;;13.68;4.72;;;;;;;;;;4248817;33;20123;-71
2022/08/16 00:04:27;;;;;;;19.05;5.85;;;;;;;;;;4261878;33;20111;-70
2022/08/16 00:35:24;;;;;;;10.52;5.00;;;;;;;;;;4753015;27;20115;-62
2022/08/16 00:37:50;;;;;;;15.48;5.30;;;;;;;;;;4262051;33;20128;-62
2022/08/16 00:40:20;;;;;;;11.80;5.07;;;;;;;;;;4261527;33;20435;-62
2022/08/16 00:42:46;;;;;;;13.88;4.65;;;;;;;;;;4248435;33;20175;-62
2022/08/16 00:45:27;;;;;;;9.05;4.40;;;;;;;;;;4261112;33;20122;-70
2022/08/16 00:47:54;;;;;;;10.82;5.32;;;;;;;;;;4248579;33;20187;-70
2022/08/16 00:50:23;;;;;;;13.73;5.45;;;;;;;;;;4248512;33;20216;-62
2022/08/16 00:52:49;;;;;;;13.38;5.37;;;;;;;;;;4261567;33;20196;-62
2022/08/16 00:55:15;;;;;;;20.45;5.43;;;;;;;;;;4261581;33;20104;-62
2022/08/16 00:57:41;;;;;;;23.95;7.40;;;;;;;;;;4261396;33;20131;-62
2022/08/16 01:00:08;;;;;;;20.52;6.47;;;;;;;;;;4261425;33;20131;-62
2022/08/16 01:02:34;;;;;;;19.42;6.28;;;;;;;;;;4261322;33;20483;-62
2022/08/16 01:05:00;;;;;;;24.50;7.22;;;;;;;;;;4261155;33;20767;-62
2022/08/16 01:07:27;;;;;;;45.35;8.77;;;;;;;;;;4261503;33;20095;-62
2022/08/16 01:09:53;;;;;;;23.98;8.27;;;;;;;;;;4261270;33;20128;-62
2022/08/16 01:12:20;;;;;;;28.70;7.95;;;;;;;;;;4248056;33;20449;-62
2022/08/16 01:14:51;;;;;;;22.20;7.43;;;;;;;;;;4261349;33;20136;-62
2022/08/16 01:17:18;;;;;;;20.12;8.50;;;;;;;;;;4261491;33;20100;-62
2022/08/16 01:19:51;;;;;;;25.25;6.93;;;;;;;;;;4248004;33;20093;-62
2022/08/16 01:22:38;;;;;;;25.27;6.95;;;;;;;;;;4236483;33;20218;-62
2022/08/16 01:25:09;;;;;;;22.48;6.12;;;;;;;;;;4248170;33;20543;-62
2022/08/16 01:27:44;;;;;;;20.48;6.25;;;;;;;;;;4247988;33;20116;-62
2022/08/16 01:30:13;;;;;;;27.58;6.70;;;;;;;;;;4247949;33;20136;-62
2022/08/16 01:32:41;;;;;;;28.75;5.97;;;;;;;;;;4261087;33;20116;-62
2022/08/16 01:35:12;;;;;;;20.83;4.85;;;;;;;;;;4260999;33;20536;-61
2022/08/16 01:37:43;;;;;;;25.27;5.05;;;;;;;;;;4261006;33;20080;-62
2022/08/16 01:40:11;;;;;;;24.35;4.78;;;;;;;;;;4261165;33;20139;-62
2022/08/16 01:42:37;;;;;;;18.00;5.45;;;;;;;;;;4261180;33;20112;-62
2022/08/16 01:45:04;;;;;;;24.55;5.53;;;;;;;;;;4261285;33;20101;-62
2022/08/16 01:47:31;;;;;;;26.73;6.37;;;;;;;;;;4261424;33;20096;-62
2022/08/16 01:49:57;;;;;;;25.52;8.98;;;;;;;;;;4248095;33;20116;-62
2022/08/16 01:52:23;;;;;;;27.87;9.20;;;;;;;;;;4260903;33;20087;-62
2022/08/16 01:54:49;;;;;;;23.67;7.28;;;;;;;;;;4261185;33;20100;-62
2022/08/16 01:57:15;;;;;;;17.60;5.20;;;;;;;;;;4261084;33;20507;-62
2022/08/16 01:59:41;;;;;;;23.80;6.85;;;;;;;;;;4247931;33;20112;-62
2022/08/16 02:02:08;;;;;;;19.25;6.95;;;;;;;;;;4260736;33;20512;-62
2022/08/16 02:04:34;;;;;;;33.95;6.68;;;;;;;;;;4247664;33;20543;-61
2022/08/16 02:07:07;;;;;;;20.75;5.80;;;;;;;;;;4261041;33;20104;-62
2022/08/16 02:09:36;;;;;;;17.17;6.80;;;;;;;;;;4260790;33;20543;-62
2022/08/16 02:12:05;;;;;;;18.80;4.80;;;;;;;;;;4260666;33;20187;-62
2022/08/16 02:14:31;;;;;;;11.00;5.60;;;;;;;;;;4247633;33;20254;-61
2022/08/16 02:17:01;;;;;;;14.48;6.00;;;;;;;;;;4259647;33;20116;-62
2022/08/16 02:19:29;;;;;;;11.70;5.15;;;;;;;;;;4260575;33;20243;-61
2022/08/16 02:21:56;;;;;;;18.50;5.28;;;;;;;;;;4260609;33;20108;-61
2022/08/16 02:24:22;;;;;;;17.30;4.97;;;;;;;;;;4247738;33;20134;-61
2022/08/16 02:26:50;;;;;;;20.08;5.57;;;;;;;;;;4247465;33;20115;-61
2022/08/16 02:29:17;;;;;;;14.32;4.97;;;;;;;;;;4247588;33;20136;-61
2022/08/16 02:31:46;;;;;;;19.25;4.78;;;;;;;;;;4260468;33;20536;-62
2022/08/16 02:34:13;;;;;;;18.87;4.62;;;;;;;;;;4247557;33;20120;-61
2022/08/16 02:36:39;;;;;;;17.37;5.25;;;;;;;;;;4260592;33;20135;-61
2022/08/16 02:39:07;;;;;;;16.42;4.80;;;;;;;;;;4260793;33;20093;-62
2022/08/16 02:41:35;;;;;;;14.35;5.03;;;;;;;;;;4260306;33;20128;-61
2022/08/16 02:44:02;;;;;;;18.40;6.10;;;;;;;;;;4260550;33;20195;-61
2022/08/16 02:46:28;;;;;;;11.65;4.60;;;;;;;;;;4260357;33;20099;-61
2022/08/16 02:48:54;;;;;;;19.65;4.70;;;;;;;;;;4260451;33;20591;-62
2022/08/16 02:51:20;;;;;;;15.57;4.43;;;;;;;;;;4260315;33;20097;-61
2022/08/16 02:53:47;;;;;;;13.15;4.22;;;;;;;;;;4260433;33;20123;-61
2022/08/16 02:56:15;;;;;;;9.75;4.68;;;;;;;;;;4247172;33;20479;-61
2022/08/16 02:58:41;;;;;;;10.43;4.47;;;;;;;;;;4247225;33;20119;-62
2022/08/16 03:01:09;;;;;;;11.57;4.72;;;;;;;;;;4260574;33;20108;-62
2022/08/16 03:03:37;;;;;;;16.15;4.97;;;;;;;;;;4260279;33;20103;-62
2022/08/16 03:06:03;;;;;;;15.10;4.22;;;;;;;;;;4260327;33;20111;-61
2022/08/16 03:08:29;;;;;;;11.98;4.40;;;;;;;;;;4260411;33;20096;-61
2022/08/16 03:10:55;;;;;;;23.27;4.40;;;;;;;;;;4260109;33;20124;-61
2022/08/16 03:13:22;;;;;;;9.93;4.60;;;;;;;;;;4260083;33;20104;-61
2022/08/16 03:15:48;;;;;;;18.58;4.78;;;;;;;;;;4259950;33;20091;-63
2022/08/16 03:18:14;;;;;;;13.02;4.22;;;;;;;;;;4259684;33;20092;-61
2022/08/16 03:20:40;;;;;;;12.75;4.55;;;;;;;;;;4259068;33;20136;-59
2022/08/16 03:23:07;;;;;;;13.18;4.95;;;;;;;;;;4260300;33;20116;-60
2022/08/16 03:25:33;;;;;;;14.57;5.75;;;;;;;;;;4259931;33;20568;-61
2022/08/16 03:27:59;;;;;;;16.35;6.30;;;;;;;;;;4261013;33;20545;-60
2022/08/16 03:30:28;;;;;;;18.02;5.57;;;;;;;;;;4262512;33;20140;-61
2022/08/16 03:32:54;;;;;;;23.70;6.20;;;;;;;;;;4261486;33;20542;-59
2022/08/16 03:35:23;;;;;;;29.83;6.43;;;;;;;;;;4261865;33;20128;-63
2022/08/16 03:37:53;;;;;;;19.58;6.53;;;;;;;;;;4262096;33;20147;-59
2022/08/16 03:40:19;;;;;;;20.80;6.65;;;;;;;;;;4262254;33;20128;-63
2022/08/16 03:42:45;;;;;;;26.70;7.65;;;;;;;;;;4262058;33;20134;-62
2022/08/16 03:45:11;;;;;;;20.88;8.52;;;;;;;;;;4245285;33;20116;-63
2022/08/16 03:47:37;;;;;;;22.55;7.85;;;;;;;;;;4229073;33;20105;-60
2022/08/16 03:50:05;;;;;;;17.37;6.20;;;;;;;;;;4261974;33;20210;-62
2022/08/16 03:52:31;;;;;;;15.88;5.62;;;;;;;;;;4261835;33;20201;-61
2022/08/16 03:54:58;;;;;;;11.63;5.80;;;;;;;;;;4261926;33;20132;-61
2022/08/16 03:57:24;;;;;;;9.63;4.95;;;;;;;;;;4261788;33;20465;-61
2022/08/16 03:59:50;;;;;;;14.38;5.95;;;;;;;;;;4261984;33;20096;-60
2022/08/16 04:02:21;;;;;;;12.65;5.32;;;;;;;;;;4261838;33;20108;-60
2022/08/16 04:04:48;;;;;;;7.32;3.83;;;;;;;;;;4225508;33;20135;-60
2022/08/16 04:07:14;;;;;;;15.60;4.78;;;;;;;;;;4248927;33;20128;-71
2022/08/16 04:09:41;;;;;;;10.35;4.25;;;;;;;;;;4236945;33;20132;-70
2022/08/16 04:12:09;;;;;;;11.85;4.97;;;;;;;;;;4248680;33;20562;-70
2022/08/16 04:14:35;;;;;;;10.23;4.72;;;;;;;;;;4247961;33;20107;-71
2022/08/16 04:17:03;;;;;;;12.27;4.37;;;;;;;;;;4261626;33;20441;-70
2022/08/16 04:19:29;;;;;;;8.00;4.18;;;;;;;;;;4248573;33;20147;-71
2022/08/16 04:21:55;;;;;;;18.00;4.95;;;;;;;;;;4237033;33;20120;-69
2022/08/16 04:24:21;;;;;;;11.57;4.12;;;;;;;;;;4261493;33;20123;-70
2022/08/16 04:26:47;;;;;;;14.90;4.55;;;;;;;;;;4260456;33;20203;-70
2022/08/16 04:29:14;;;;;;;10.07;4.22;;;;;;;;;;4248738;33;20519;-69
2022/08/16 04:31:40;;;;;;;12.80;3.97;;;;;;;;;;4236792;33;20108;-68
2022/08/16 04:34:06;;;;;;;11.63;4.62;;;;;;;;;;4261951;33;20120;-69
2022/08/16 04:36:32;;;;;;;7.75;4.03;;;;;;;;;;4261696;33;20473;-69
2022/08/16 04:38:58;;;;;;;15.77;4.65;;;;;;;;;;4260816;33;20220;-69
2022/08/16 04:41:24;;;;;;;12.55;5.28;;;;;;;;;;4261752;33;20168;-69
2022/08/16 04:43:50;;;;;;;14.40;5.00;;;;;;;;;;4261742;33;20439;-70
2022/08/16 04:46:16;;;;;;;18.15;5.78;;;;;;;;;;4261744;33;20135;-70
2022/08/16 04:48:43;;;;;;;14.52;5.90;;;;;;;;;;4261611;33;20200;-70
2022/08/16 04:51:10;;;;;;;14.32;9.25;;;;;;;;;;4261853;33;20103;-69
2022/08/16 04:53:37;;;;;;;21.95;10.18;;;;;;;;;;4261550;33;20455;-70
2022/08/16 04:56:03;;;;;;;21.75;11.52;;;;;;;;;;4248321;33;20688;-69
2022/08/16 04:58:31;;;;;;;14.68;10.70;;;;;;;;;;4236797;33;20495;-70
2022/08/16 05:00:57;;;;;;;20.00;10.82;;;;;;;;;;4261365;33;20104;-69
2022/08/16 05:03:23;;;;;;;17.87;9.38;;;;;;;;;;4248241;33;20195;-68
2022/08/16 05:05:50;;;;;;;14.98;7.95;;;;;;;;;;4225123;33;20120;-69
2022/08/16 05:08:16;;;;;;;12.32;6.53;;;;;;;;;;4261432;33;20203;-69
2022/08/16 05:10:42;;;;;;;9.23;6.45;;;;;;;;;;4261431;33;20126;-69
2022/08/16 05:13:08;;;;;;;13.18;7.50;;;;;;;;;;4261596;33;20764;-69
2022/08/16 05:15:35;;;;;;;17.12;7.37;;;;;;;;;;4261385;33;20103;-69
2022/08/16 05:18:02;;;;;;;13.70;6.32;;;;;;;;;;4248419;33;20101;-71
2022/08/16 05:20:28;;;;;;;9.90;5.37;;;;;;;;;;4261540;33;20103;-69
2022/08/16 05:22:54;;;;;;;14.40;5.55;;;;;;;;;;4261199;33;20506;-71
2022/08/16 05:25:21;;;;;;;8.73;5.47;;;;;;;;;;4261233;33;20497;-66
2022/08/16 05:27:47;;;;;;;10.02;4.82;;;;;;;;;;4261315;33;20100;-71
2022/08/16 05:30:14;;;;;;;16.48;4.43;;;;;;;;;;4261470;33;20096;-67
2022/08/16 05:32:41;;;;;;;8.50;4.30;;;;;;;;;;4248242;33;20139;-67
2022/08/16 05:35:09;;;;;;;14.82;7.03;;;;;;;;;;4248373;33;20135;-67
2022/08/16 05:37:37;;;;;;;7.97;4.65;;;;;;;;;;4254368;33;20093;-69
2022/08/16 05:40:05;;;;;;;7.25;4.60;;;;;;;;;;4260969;33;20124;-70
2022/08/16 05:42:31;;;;;;;11.80;4.72;;;;;;;;;;4261094;33;20116;-70
2022/08/16 05:44:57;;;;;;;6.22;4.32;;;;;;;;;;4236153;33;20101;-71
2022/08/16 05:47:23;;;;;;;7.53;3.58;;;;;;;;;;4236014;33;20136;-69
2022/08/16 05:49:49;;;;;;;6.70;4.80;;;;;;;;;;4260849;33;20104;-72
2022/08/16 05:52:15;;;;;;;7.60;3.47;;;;;;;;;;4261187;33;20194;-71
2022/08/16 05:54:42;;;;;;;3.75;3.17;;;;;;;;;;4260913;33;20147;-71
2022/08/16 05:57:08;;;;;;;10.10;4.75;;;;;;;;;;4260897;33;20127;-72
2022/08/16 05:59:34;;;;;;;5.78;3.78;;;;;;;;;;4247653;33;20115;-71
2022/08/16 06:02:00;;;;;;;12.20;3.95;;;;;;;;;;4247976;33;20108;-69
2022/08/16 06:04:26;;;;;;;6.10;3.78;;;;;;;;;;4260726;33;20112;-71
2022/08/16 06:06:52;;;;;;;6.90;3.10;;;;;;;;;;4248017;33;20232;-71
2022/08/16 06:09:18;;;;;;;3.92;2.78;;;;;;;;;;4247669;33;20206;-70
2022/08/16 06:11:45;;;;;;;12.63;4.15;;;;;;;;;;4261067;33;20112;-70
2022/08/16 06:14:11;;;;;;;4.57;2.65;;;;;;;;;;4260782;33;20460;-71
2022/08/16 06:16:37;;;;;;;2.28;2.00;;;;;;;;;;4247811;33;20127;-70
2022/08/16 06:19:03;;;;;;;5.60;3.42;;;;;;;;;;4235717;33;20705;-70
2022/08/16 06:21:30;;;;;;;5.22;3.87;;;;;;;;;;4247418;33;20562;-71
2022/08/16 06:23:56;;;;;;;7.55;4.07;;;;;;;;;;4260910;33;20109;-70
2022/08/16 06:26:22;;;;;;;5.00;3.00;;;;;;;;;;4260668;33;20131;-71
2022/08/16 06:28:48;;;;;;;5.00;3.12;;;;;;;;;;4247456;33;20124;-70
2022/08/16 06:31:15;;;;;;;2.42;2.17;;;;;;;;;;4260543;33;20539;-68
2022/08/16 06:33:42;;;;;;;6.55;3.85;;;;;;;;;;4224248;33;20089;-71
2022/08/16 06:36:10;;;;;;;6.97;3.25;;;;;;;;;;4260420;33;20116;-72
2022/08/16 06:38:36;;;;;;;6.72;3.37;;;;;;;;;;4260475;33;20436;-69
2022/08/16 06:41:04;;;;;;;6.15;3.42;;;;;;;;;;4239287;33;20131;-71
2022/08/16 06:43:31;;;;;;;6.60;3.28;;;;;;;;;;4247494;33;20444;-71
2022/08/16 06:45:57;;;;;;;9.63;2.70;;;;;;;;;;4247490;33;20544;-73
2022/08/16 06:48:23;;;;;;;7.55;2.60;;;;;;;;;;4247395;33;20119;-70
2022/08/16 06:50:51;;;;;;;4.82;2.50;;;;;;;;;;4260594;33;20092;-71
2022/08/16 06:53:17;;;;;;;2.97;2.17;;;;;;;;;;4260340;33;20097;-71
2022/08/16 06:55:44;;;;;;;4.65;2.83;;;;;;;;;;4260536;33;20104;-71
2022/08/16 06:58:10;;;;;;;3.12;2.08;;;;;;;;;;4260289;33;20127;-70
2022/08/16 07:00:37;;;;;;;4.65;2.17;;;;;;;;;;4260277;33;20131;-70
2022/08/16 07:03:03;;;;;;;3.30;2.53;;;;;;;;;;4246910;33;20104;-69
2022/08/16 07:05:30;;;;;;;7.62;3.90;;;;;;;;;;4260422;33;20113;-70
2022/08/16 07:07:56;;;;;;;2.28;2.03;;;;;;;;;;4247190;33;20126;-70
2022/08/16 07:10:23;;;;;;;2.17;1.73;;;;;;;;;;4247317;33;20131;-69
2022/08/16 07:12:50;;;;;;;8.00;3.25;;;;;;;;;;4247040;33;20124;-70
2022/08/16 07:15:17;;;;;;;6.12;2.60;;;;;;;;;;4259972;33;20190;-70
2022/08/16 07:17:44;;;;;;;4.03;2.50;;;;;;;;;;4246972;33;20192;-71
2022/08/16 07:20:11;;;;;;;4.03;2.60;;;;;;;;;;4246928;33;20116;-70
2022/08/16 07:22:38;;;;;;;6.30;3.67;;;;;;;;;;4247024;33;20127;-69
2022/08/16 07:25:07;;;;;;;5.10;2.92;;;;;;;;;;4247005;33;20100;-71
2022/08/16 07:27:33;;;;;;;3.08;2.60;;;;;;;;;;4247051;33;20543;-69
2022/08/16 07:29:59;;;;;;;3.08;2.12;;;;;;;;;;4246904;33;20123;-68
2022/08/16 07:32:25;;;;;;;10.45;3.50;;;;;;;;;;4259940;33;20105;-71
2022/08/16 07:34:51;;;;;;;4.75;2.37;;;;;;;;;;4260110;33;20100;-69
2022/08/16 07:37:17;;;;;;;5.60;2.92;;;;;;;;;;4259967;33;20104;-69
2022/08/16 07:39:43;;;;;;;2.65;1.92;;;;;;;;;;4259477;33;20096;-69
2022/08/16 07:42:10;;;;;;;5.47;3.62;;;;;;;;;;4259838;33;20096;-70
2022/08/16 07:44:36;;;;;;;9.20;3.30;;;;;;;;;;4259747;33;20132;-65
2022/08/16 07:47:02;;;;;;;5.95;3.30;;;;;;;;;;4260061;33;20120;-67
2022/08/16 07:49:28;;;;;;;5.62;3.12;;;;;;;;;;4245903;33;20277;-67
2022/08/16 07:51:54;;;;;;;5.70;3.12;;;;;;;;;;4257673;33;20128;-66
2022/08/16 07:54:20;;;;;;;2.47;2.00;;;;;;;;;;4257732;33;20544;-67
2022/08/16 07:56:46;;;;;;;4.12;3.00;;;;;;;;;;4255932;33;20112;-66
2022/08/16 07:59:12;;;;;;;3.10;2.30;;;;;;;;;;4243691;33;20116;-66
2022/08/16 08:01:38;;;;;;;5.28;2.78;;;;;;;;;;4243422;33;20446;-67
2022/08/16 08:04:07;;;;;;;7.75;3.10;;;;;;;;;;4227491;33;20219;-66
2022/08/16 08:06:33;;;;;;;3.30;2.17;;;;;;;;;;4240902;33;20539;-66
2022/08/16 08:08:59;;;;;;;2.10;1.90;;;;;;;;;;4228021;33;20226;-66
2022/08/16 08:11:27;;;;;;;7.40;2.78;;;;;;;;;;4241033;33;20143;-67
2022/08/16 08:13:53;;;;;;;2.95;2.10;;;;;;;;;;4241194;33;20096;-66
2022/08/16 08:16:20;;;;;;;2.45;2.05;;;;;;;;;;4243621;33;20200;-66
2022/08/16 08:18:47;;;;;;;6.37;2.90;;;;;;;;;;4243306;33;20980;-66
2022/08/16 08:21:13;;;;;;;6.40;2.78;;;;;;;;;;4229943;33;20938;-67
2022/08/16 08:23:40;;;;;;;2.67;2.10;;;;;;;;;;4243657;33;20126;-66
2022/08/16 08:26:06;;;;;;;4.32;2.30;;;;;;;;;;4243608;33;20119;-66
2022/08/16 08:28:32;;;;;;;1.83;1.73;;;;;;;;;;4230369;33;20563;-66
2022/08/16 08:31:02;;;;;;;4.47;2.70;;;;;;;;;;4243343;33;20131;-65
2022/08/16 08:33:30;;;;;;;5.37;2.33;;;;;;;;;;4246046;33;20200;-66
2022/08/16 08:35:57;;;;;;;4.55;2.80;;;;;;;;;;4234416;33;20139;-67
2022/08/16 08:38:24;;;;;;;4.93;3.62;;;;;;;;;;4248062;33;20113;-67
2022/08/16 08:40:50;;;;;;;3.10;2.67;;;;;;;;;;4261281;33;20095;-66
2022/08/16 08:43:16;;;;;;;4.05;2.10;;;;;;;;;;4248376;33;20108;-66
2022/08/16 08:45:42;;;;;;;3.80;2.78;;;;;;;;;;4261622;33;20123;-67
2022/08/16 08:48:09;;;;;;;4.57;2.75;;;;;;;;;;4248442;33;20116;-66
2022/08/16 08:50:36;;;;;;;6.35;2.80;;;;;;;;;;4248369;33;20116;-67
2022/08/16 08:53:02;;;;;;;8.60;3.80;;;;;;;;;;4261453;33;20104;-67
2022/08/16 08:55:30;;;;;;;5.68;3.00;;;;;;;;;;4261677;33;20195;-65
2022/08/16 08:57:56;;;;;;;5.20;2.65;;;;;;;;;;4248589;33;20522;-67
2022/08/16 09:00:24;;;;;;;3.60;2.50;;;;;;;;;;4255466;33;20099;-67
2022/08/16 09:02:50;;;;;;;2.62;1.83;;;;;;;;;;4234077;33;20105;-69
2022/08/16 09:05:19;;;;;;;8.07;2.72;;;;;;;;;;4237854;33;20097;-67
2022/08/16 09:07:46;;;;;;;4.82;2.70;;;;;;;;;;4271811;33;20119;-68
2022/08/16 09:10:13;;;;;;;6.12;2.70;;;;;;;;;;4254940;33;20163;-67
2022/08/16 09:12:39;;;;;;;4.22;2.83;;;;;;;;;;4252508;33;20465;-67
2022/08/16 09:15:06;;;;;;;1.40;1.30;;;;;;;;;;4250921;33;20207;-66
2022/08/16 09:17:32;;;;;;;9.20;3.25;;;;;;;;;;4250738;33;20207;-66
2022/08/16 09:19:58;;;;;;;6.35;2.55;;;;;;;;;;4250794;33;20131;-65
2022/08/16 09:22:26;;;;;;;5.78;3.10;;;;;;;;;;4250845;33;20658;-66
2022/08/16 09:24:53;;;;;;;3.35;2.67;;;;;;;;;;4255925;33;20100;-67
2022/08/16 09:27:22;;;;;;;2.35;1.55;;;;;;;;;;4248414;33;20533;-67
2022/08/16 09:29:49;;;;;;;4.75;1.85;;;;;;;;;;4260910;33;20108;-69
2022/08/16 09:32:17;;;;;;;12.20;4.82;;;;;;;;;;4258655;33;20104;-67
2022/08/16 09:34:43;;;;;;;5.72;3.22;;;;;;;;;;4250984;33;20097;-66
2022/08/16 09:37:09;;;;;;;9.80;2.33;;;;;;;;;;4248633;33;20091;-65
2022/08/16 09:39:35;;;;;;;7.68;2.37;;;;;;;;;;4255810;33;20132;-66
2022/08/16 09:42:02;;;;;;;4.60;3.15;;;;;;;;;;4248621;33;20192;-65
2022/08/16 09:44:29;;;;;;;10.50;2.58;;;;;;;;;;4254112;33;20108;-65
2022/08/16 09:46:56;;;;;;;5.00;2.62;;;;;;;;;;4253897;33;20199;-66
2022/08/16 09:49:22;;;;;;;5.37;2.35;;;;;;;;;;4254159;33;20447;-66
2022/08/16 09:51:52;;;;;;;6.65;2.72;;;;;;;;;;4257973;33;20172;-66
2022/08/16 09:54:20;;;;;;;3.92;2.65;;;;;;;;;;4261074;33;20110;-67
2022/08/16 09:56:46;;;;;;;5.35;2.60;;;;;;;;;;4271742;33;20195;-67
2022/08/16 09:59:14;;;;;;;5.93;2.42;;;;;;;;;;4271446;33;20125;-67
2022/08/16 10:01:41;;;;;;;3.53;2.17;;;;;;;;;;4260792;33;20203;-67
2022/08/16 10:04:07;;;;;;;5.60;2.58;;;;;;;;;;4271190;33;20143;-68
2022/08/16 10:06:34;;;;;;;2.90;1.90;;;;;;;;;;4256062;33;20124;-66
2022/08/16 10:09:05;;;;;;;4.95;2.45;;;;;;;;;;4260761;33;20139;-66
2022/08/16 10:14:21;;;;;;;4.80;2.33;;;;;;;;;;4246497;33;20203;-66
2022/08/16 10:16:47;;;;;;;4.30;2.20;;;;;;;;;;4260949;33;20120;-67
2022/08/16 10:19:14;;;;;;;4.25;2.75;;;;;;;;;;4260967;33;20117;-67
2022/08/16 10:21:40;;;;;;;4.68;2.42;;;;;;;;;;4247510;33;20107;-67
2022/08/16 10:24:06;;;;;;;2.72;1.90;;;;;;;;;;4247651;33;21142;-67
2022/08/16 10:26:34;;;;;;;7.12;2.78;;;;;;;;;;4260642;33;20124;-66
2022/08/16 10:29:00;;;;;;;4.57;2.33;;;;;;;;;;4260823;33;20108;-65
2022/08/16 10:31:26;;;;;;;8.55;2.92;;;;;;;;;;4270928;33;20093;-65
2022/08/16 10:33:53;;;;;;;1.42;1.20;;;;;;;;;;4260553;33;20097;-66
2022/08/16 10:36:19;;;;;;;2.15;1.95;;;;;;;;;;4259896;33;20104;-66
2022/08/16 10:38:45;;;;;;;6.18;2.25;;;;;;;;;;4246912;33;20113;-66
2022/08/16 10:41:11;;;;;;;3.97;2.53;;;;;;;;;;4260218;33;20189;-66
2022/08/16 10:43:39;;;;;;;3.92;2.50;;;;;;;;;;4260840;33;20141;-67
2022/08/16 10:46:07;;;;;;;5.07;2.37;;;;;;;;;;4247314;33;20120;-69
2022/08/16 10:48:34;;;;;;;2.58;1.98;;;;;;;;;;4246079;33;20105;-68
2022/08/16 10:51:00;;;;;;;2.22;1.60;;;;;;;;;;4247377;33;20129;-68
2022/08/16 10:53:27;;;;;;;7.03;2.80;;;;;;;;;;4260382;33;20128;-68
2022/08/16 10:55:53;;;;;;;2.60;2.37;;;;;;;;;;4260213;33;20807;-68
2022/08/16 10:58:19;;;;;;;3.25;2.30;;;;;;;;;;4260321;33;20108;-68
2022/08/16 11:00:45;;;;;;;4.45;2.42;;;;;;;;;;4260463;33;20129;-69
2022/08/16 11:03:12;;;;;;;5.22;2.37;;;;;;;;;;4260190;33;20119;-69
2022/08/16 11:05:40;;;;;;;2.17;1.98;;;;;;;;;;4259930;33;20480;-68
2022/08/16 11:08:07;;;;;;;3.97;2.40;;;;;;;;;;4260062;33;20132;-67
2022/08/16 11:10:35;;;;;;;7.07;2.40;;;;;;;;;;4247166;33;20128;-67
2022/08/16 11:13:01;;;;;;;3.08;2.15;;;;;;;;;;4260199;33;20529;-68
2022/08/16 11:15:27;;;;;;;1.67;1.58;;;;;;;;;;4247011;33;20198;-68
2022/08/16 11:17:54;;;;;;;6.35;2.42;;;;;;;;;;4260147;33;20124;-67
2022/08/16 11:20:20;;;;;;;3.47;2.50;;;;;;;;;;4259706;33;20108;-69
2022/08/16 11:22:47;;;;;;;7.65;2.53;;;;;;;;;;4254200;33;20131;-67
2022/08/16 11:25:17;;;;;;;7.45;2.65;;;;;;;;;;4249753;33;20112;-69
2022/08/16 11:27:42;;;;;;;2.22;1.45;;;;;;;;;;4246879;33;20117;-69
2022/08/16 11:30:11;;;;;;;8.30;2.50;;;;;;;;;;4252232;33;20144;-68
2022/08/16 11:32:37;;;;;;;3.80;2.17;;;;;;;;;;4244470;33;20191;-68
2022/08/16 11:35:10;;;;;;;1.48;1.37;;;;;;;;;;4245935;33;20240;-68
2022/08/16 11:37:36;;;;;;;6.53;2.87;;;;;;;;;;4246983;33;20133;-69
2022/08/16 11:40:04;;;;;;;6.43;3.05;;;;;;;;;;4259746;33;20127;-68
2022/08/16 11:42:31;;;;;;;4.50;2.45;;;;;;;;;;4246668;33;20131;-66
2022/08/16 11:44:57;;;;;;;5.22;2.70;;;;;;;;;;4259821;33;20207;-69
2022/08/16 11:47:23;;;;;;;4.28;2.37;;;;;;;;;;4259968;33;20131;-67
2022/08/16 11:49:50;;;;;;;5.37;3.17;;;;;;;;;;4261708;33;20135;-68
2022/08/16 11:52:16;;;;;;;3.05;1.98;;;;;;;;;;4248921;33;20108;-67
2022/08/16 11:54:45;;;;;;;3.35;2.20;;;;;;;;;;4260588;33;20511;-69
2022/08/16 11:57:12;;;;;;;3.42;1.98;;;;;;;;;;4247763;33;20104;-69
2022/08/16 11:59:39;;;;;;;8.57;2.47;;;;;;;;;;4246316;33;20528;-68
2022/08/16 12:02:06;;;;;;;3.85;2.67;;;;;;;;;;4247669;33;20757;-67
2022/08/16 12:04:33;;;;;;;4.32;2.42;;;;;;;;;;4246458;33;20105;-68
2022/08/16 12:07:00;;;;;;;5.43;2.15;;;;;;;;;;4246336;33;20115;-67
2022/08/16 12:09:27;;;;;;;2.58;2.10;;;;;;;;;;4247602;33;20127;-68
2022/08/16 12:11:54;;;;;;;3.20;2.47;;;;;;;;;;4247742;33;20112;-68
2022/08/16 12:14:20;;;;;;;4.43;2.12;;;;;;;;;;4247550;33;20119;-65
2022/08/16 12:16:46;;;;;;;5.47;3.20;;;;;;;;;;4247586;33;20113;-66
2022/08/16 12:19:12;;;;;;;3.15;2.42;;;;;;;;;;4247594;33;20120;-68
2022/08/16 12:21:38;;;;;;;2.85;2.20;;;;;;;;;;4248632;33;20089;-69
2022/08/16 12:24:05;;;;;;;3.45;2.10;;;;;;;;;;4261941;33;20107;-68
2022/08/16 12:26:32;;;;;;;3.50;1.98;;;;;;;;;;4261597;33;20544;-68
2022/08/16 12:29:00;;;;;;;2.20;1.85;;;;;;;;;;4261660;33;20100;-68
2022/08/16 12:31:26;;;;;;;4.75;2.20;;;;;;;;;;4261585;33;20436;-67
2022/08/16 12:33:53;;;;;;;6.68;2.80;;;;;;;;;;4261556;33;20104;-67
2022/08/16 12:36:19;;;;;;;2.45;1.70;;;;;;;;;;4261409;33;20203;-68
2022/08/16 12:38:46;;;;;;;4.25;2.45;;;;;;;;;;4261849;33;20092;-67
2022/08/16 12:41:13;;;;;;;5.15;2.58;;;;;;;;;;4261448;33;20124;-68
2022/08/16 12:43:42;;;;;;;1.25;1.17;;;;;;;;;;4261570;33;20161;-68
2022/08/16 12:46:11;;;;;;;4.22;2.50;;;;;;;;;;4261537;33;20124;-68
2022/08/16 12:49:12;;;;;;;3.33;2.28;;;;;;;;;;4261506;33;20589;-67
2022/08/16 12:51:35;;;;;;;2.67;2.10;;;;;;;;;;4259196;33;20120;-67
2022/08/16 12:54:03;;;;;;;6.00;3.10;;;;;;;;;;4261540;33;20219;-69
2022/08/16 12:56:32;;;;;;;3.95;2.20;;;;;;;;;;4261317;33;20143;-69
2022/08/16 12:59:00;;;;;;;2.47;1.98;;;;;;;;;;4261393;33;20444;-68
2022/08/16 13:01:29;;;;;;;3.28;2.30;;;;;;;;;;4260654;33;20101;-68
2022/08/16 13:03:57;;;;;;;3.70;2.50;;;;;;;;;;4261712;33;20103;-67
2022/08/16 13:06:24;;;;;;;5.07;2.12;;;;;;;;;;4261450;33;20131;-67
2022/08/16 13:08:50;;;;;;;3.10;2.25;;;;;;;;;;4261472;33;20460;-68
2022/08/16 13:11:34;;;;;;;2.55;2.10;;;;;;;;;;4261559;33;20135;-69
2022/08/16 13:14:00;;;;;;;3.70;2.20;;;;;;;;;;4248554;33;20518;-67
2022/08/16 13:16:26;;;;;;;4.40;3.40;;;;;;;;;;4261537;33;20135;-69
2022/08/16 13:18:52;;;;;;;5.85;2.55;;;;;;;;;;4261298;33;20128;-68
2022/08/16 13:21:18;;;;;;;3.37;1.98;;;;;;;;;;4247820;33;20089;-68
2022/08/16 13:23:44;;;;;;;2.78;1.87;;;;;;;;;;4261487;33;20100;-69
2022/08/16 13:26:11;;;;;;;4.60;2.40;;;;;;;;;;4261032;33;20183;-67
2022/08/16 13:28:37;;;;;;;4.40;2.70;;;;;;;;;;4260567;33;20505;-68
2022/08/16 13:31:04;;;;;;;2.33;1.80;;;;;;;;;;4261021;33;20131;-67
2022/08/16 13:33:35;;;;;;;6.15;2.50;;;;;;;;;;4261087;33;20103;-66
2022/08/16 13:36:05;;;;;;;3.67;2.50;;;;;;;;;;4260819;33;20543;-66
2022/08/16 13:38:33;;;;;;;7.43;2.15;;;;;;;;;;4248144;33;20935;-68
2022/08/16 13:41:01;;;;;;;2.17;1.87;;;;;;;;;;4261181;33;20112;-67
2022/08/16 13:43:28;;;;;;;4.10;2.22;;;;;;;;;;4261301;33;20114;-67
2022/08/16 13:45:56;;;;;;;4.37;2.00;;;;;;;;;;4260944;33;20131;-66
2022/08/16 13:48:23;;;;;;;3.47;2.37;;;;;;;;;;4247635;33;20460;-73
2022/08/16 13:50:50;;;;;;;3.85;2.22;;;;;;;;;;4236295;33;20100;-71
2022/08/16 13:53:16;;;;;;;8.00;2.95;;;;;;;;;;4248023;33;20096;-75
2022/08/16 13:55:42;;;;;;;5.80;3.15;;;;;;;;;;4248103;33;20476;-72
2022/08/16 13:58:07;;;;;;;5.97;2.58;;;;;;;;;;4247339;33;20112;-71
2022/08/16 14:00:35;;;;;;;5.05;2.75;;;;;;;;;;4260633;33;20200;-71
2022/08/16 14:03:01;;;;;;;4.70;2.65;;;;;;;;;;4259238;33;20092;-71
2022/08/16 14:05:27;;;;;;;2.75;2.17;;;;;;;;;;4260751;33;20103;-70
2022/08/16 14:07:53;;;;;;;8.27;2.85;;;;;;;;;;4247054;33;20108;-75
2022/08/16 14:10:19;;;;;;;7.07;3.45;;;;;;;;;;4260813;33;20528;-75
2022/08/16 14:12:45;;;;;;;9.88;3.37;;;;;;;;;;4260611;33;20099;-72
2022/08/16 14:15:13;;;;;;;5.80;2.80;;;;;;;;;;4260658;33;20084;-71
2022/08/16 14:17:39;;;;;;;8.45;2.80;;;;;;;;;;4260589;33;20120;-71
2022/08/16 14:20:06;;;;;;;3.87;2.30;;;;;;;;;;4247783;33;20112;-72
2022/08/16 14:22:36;;;;;;;8.18;2.95;;;;;;;;;;4260648;33;20099;-71
2022/08/16 14:25:04;;;;;;;6.60;3.70;;;;;;;;;;4247465;33;20093;-71
2022/08/16 14:27:31;;;;;;;5.62;3.05;;;;;;;;;;4260523;33;20493;-74
2022/08/16 14:29:58;;;;;;;9.05;2.95;;;;;;;;;;4260594;33;20112;-76
2022/08/16 14:32:26;;;;;;;12.32;4.37;;;;;;;;;;4223887;33;20124;-73
2022/08/16 14:34:53;;;;;;;14.82;5.22;;;;;;;;;;4260375;33;20101;-73
2022/08/16 14:37:19;;;;;;;14.27;4.62;;;;;;;;;;4247336;33;20085;-70
2022/08/16 14:39:45;;;;;;;15.77;5.07;;;;;;;;;;4259295;33;20105;-69
2022/08/16 14:42:19;;;;;;;15.82;6.57;;;;;;;;;;4243126;33;20099;-70
2022/08/16 14:44:46;;;;;;;14.15;4.78;;;;;;;;;;4239801;33;20460;-69
2022/08/16 14:47:13;;;;;;;12.73;4.68;;;;;;;;;;4252312;33;20241;-70
2022/08/16 14:49:39;;;;;;;7.25;3.28;;;;;;;;;;4250113;33;20462;-68
2022/08/16 14:52:17;;;;;;;5.65;3.45;;;;;;;;;;4248626;33;20551;-68
2022/08/16 14:54:45;;;;;;;7.65;2.87;;;;;;;;;;4248572;33;20547;-69
2022/08/16 14:57:11;;;;;;;8.05;3.08;;;;;;;;;;4248089;33;20527;-68
2022/08/16 14:59:38;;;;;;;2.47;2.28;;;;;;;;;;4248570;33;20129;-69
2022/08/16 15:02:12;;;;;;;6.37;2.80;;;;;;;;;;4247509;33;20211;-70
2022/08/16 15:04:38;;;;;;;9.10;2.50;;;;;;;;;;4250814;33;20468;-66
2022/08/16 15:07:04;;;;;;;9.95;2.80;;;;;;;;;;4239271;33;20116;-69
2022/08/16 15:09:30;;;;;;;9.07;2.50;;;;;;;;;;4238305;33;20124;-67